หน้าหลัก
METAR-TAF:

METAR-TAF

ท่าอากาศยาน :

Killarney, ไอร์แลนด์

ละติจูด: 52-10-51N, ลองจิจูด: 9-31-26W, ความสูง: 34 ม.

การสังเกตสภาพอากาศปัจจุบัน

รายงานได้ทำขึ้นเมื่อ 7 ชั่วโมงและ 33 นาทีที่แล้ว ณ เวลา 17:00 UTC
ลม 9 นอตจากเหนือ/ตะวันตกเฉียงเหนือ, แปรผันระหว่างตะวันตก และตะวันออก/ตะวันออกเฉียงเหนือ
อุณหภูมิ 16°C
ความชื้น 63%
ความกดอากาศ 1022 hPa
ทัศนวิสัย 10 กม. หรือมากกว่า
มีเมฆน้อยที่ความสูง 3300 ฟุต
มีเมฆเป็นส่วนมากเว้นเป็นระยะที่ความสูง 4300 ฟุต

METAR: EIKY 181700Z 33009KT 280V060 9999 FEW033 BKN043 16/09 Q1022

เวลา: 01:33 (00:33 UTC)

การพยากรณ์

รายงานได้ทำขึ้นเมื่อ 7 ชั่วโมงและ 33 นาทีที่แล้ว ณ เวลา 17:00 UTC
การพยากรณ์มีผลตั้งแต่วันที่ 18 ณ เวลา 18 UTC จนถึงวันที่ 19 ณ เวลา 03 UTC
ลม 7 นอตจากเหนือ/ตะวันตกเฉียงเหนือ
ทัศนวิสัย 10 กม. หรือมากกว่า
มีเมฆกระจายเป็นบางส่วนที่ความสูง 3000 ฟุต

TAF: EIKY 181700Z 1818/1903 33007KT 9999 SCT030

สังเกตการณ์สภาพอากาศและพยากรณ์อากาศของสนามบินมากกว่า 4000 แห่ง (รายงาน METAR และ TAF).

สถานีที่ดูได้จะแสดงไว้ด้วยจุดสีเหลืองและสีแดงบนแผนที่.

เลื่อนเมาส์ไปเหนือจุดเพื่อดูชื่อสถานี.

แล้วคลิกเพื่อดูสังเกตการณ์และการพยากรณ์สภาพอากาศ.

ในการเปลี่ยนแผนที่: คลิกที่ปุ่มสีเขียวที่มีกากบาทสีดำเพื่อซูมเข้า; ที่ปุ่มสีเขียวที่มีขีดเพื่อซูมออก; หรือที่ลูกศรสีเขียวเพื่อไปยังแผนที่ที่อยู่ติดกัน.


METAR-TAF: